sensor_id;sensor_type;location;lat;lon;timestamp;P1;durP1;ratioP1;P2;durP2;ratioP2
10957;SDS011;5531;42.570;23.676;2022-09-01T00:00:10;26.77;;;22.08;;
10957;SDS011;5531;42.570;23.676;2022-09-01T00:02:43;28.80;;;22.48;;
10957;SDS011;5531;42.570;23.676;2022-09-01T00:05:12;26.50;;;21.33;;
10957;SDS011;5531;42.570;23.676;2022-09-01T00:07:41;26.65;;;22.20;;
10957;SDS011;5531;42.570;23.676;2022-09-01T00:10:13;29.02;;;22.77;;
10957;SDS011;5531;42.570;23.676;2022-09-01T00:12:42;33.30;;;25.38;;
10957;SDS011;5531;42.570;23.676;2022-09-01T00:15:12;35.83;;;28.15;;
10957;SDS011;5531;42.570;23.676;2022-09-01T00:17:41;38.00;;;28.88;;
10957;SDS011;5531;42.570;23.676;2022-09-01T00:20:10;38.95;;;28.38;;
10957;SDS011;5531;42.570;23.676;2022-09-01T00:22:39;33.22;;;26.65;;
10957;SDS011;5531;42.570;23.676;2022-09-01T00:25:08;36.08;;;27.35;;
10957;SDS011;5531;42.570;23.676;2022-09-01T00:27:40;35.47;;;27.02;;
10957;SDS011;5531;42.570;23.676;2022-09-01T00:30:09;36.28;;;26.88;;
10957;SDS011;5531;42.570;23.676;2022-09-01T00:32:39;39.17;;;29.23;;
10957;SDS011;5531;42.570;23.676;2022-09-01T00:35:11;42.05;;;31.73;;
10957;SDS011;5531;42.570;23.676;2022-09-01T00:37:40;42.78;;;32.17;;
10957;SDS011;5531;42.570;23.676;2022-09-01T00:40:10;43.20;;;31.42;;
10957;SDS011;5531;42.570;23.676;2022-09-01T00:42:43;41.75;;;31.17;;
10957;SDS011;5531;42.570;23.676;2022-09-01T00:45:13;43.53;;;30.30;;
10957;SDS011;5531;42.570;23.676;2022-09-01T00:47:43;42.08;;;30.90;;
10957;SDS011;5531;42.570;23.676;2022-09-01T00:50:13;38.47;;;28.85;;
10957;SDS011;5531;42.570;23.676;2022-09-01T00:52:45;39.72;;;28.77;;
10957;SDS011;5531;42.570;23.676;2022-09-01T00:55:20;37.50;;;27.77;;
10957;SDS011;5531;42.570;23.676;2022-09-01T00:57:55;37.33;;;27.58;;
10957;SDS011;5531;42.570;23.676;2022-09-01T01:00:27;39.03;;;28.05;;
10957;SDS011;5531;42.570;23.676;2022-09-01T01:02:58;39.60;;;28.25;;
10957;SDS011;5531;42.570;23.676;2022-09-01T01:05:28;41.83;;;29.88;;
10957;SDS011;5531;42.570;23.676;2022-09-01T01:08:01;40.72;;;29.23;;
10957;SDS011;5531;42.570;23.676;2022-09-01T01:10:33;42.38;;;29.50;;
10957;SDS011;5531;42.570;23.676;2022-09-01T01:13:09;40.65;;;30.15;;
10957;SDS011;5531;42.570;23.676;2022-09-01T01:15:41;42.08;;;30.27;;
10957;SDS011;5531;42.570;23.676;2022-09-01T01:18:11;42.25;;;29.40;;
10957;SDS011;5531;42.570;23.676;2022-09-01T01:20:41;40.88;;;29.13;;
10957;SDS011;5531;42.570;23.676;2022-09-01T01:23:27;43.42;;;29.45;;
10957;SDS011;5531;42.570;23.676;2022-09-01T01:26:07;37.33;;;27.95;;
10957;SDS011;5531;42.570;23.676;2022-09-01T01:28:38;35.60;;;25.58;;
10957;SDS011;5531;42.570;23.676;2022-09-01T01:31:09;37.00;;;27.67;;
10957;SDS011;5531;42.570;23.676;2022-09-01T01:33:43;34.08;;;25.55;;
10957;SDS011;5531;42.570;23.676;2022-09-01T01:36:15;35.97;;;27.02;;
10957;SDS011;5531;42.570;23.676;2022-09-01T01:38:57;32.42;;;25.23;;
10957;SDS011;5531;42.570;23.676;2022-09-01T01:41:30;35.65;;;25.55;;
10957;SDS011;5531;42.570;23.676;2022-09-01T01:44:03;34.63;;;27.00;;
10957;SDS011;5531;42.570;23.676;2022-09-01T01:46:33;32.97;;;26.42;;
10957;SDS011;5531;42.570;23.676;2022-09-01T01:49:04;35.78;;;25.00;;
10957;SDS011;5531;42.570;23.676;2022-09-01T01:51:33;39.22;;;26.02;;
10957;SDS011;5531;42.570;23.676;2022-09-01T01:54:02;35.35;;;26.33;;
10957;SDS011;5531;42.570;23.676;2022-09-01T01:56:34;31.17;;;22.90;;
10957;SDS011;5531;42.570;23.676;2022-09-01T01:59:06;35.50;;;26.80;;
10957;SDS011;5531;42.570;23.676;2022-09-01T02:01:39;33.28;;;26.17;;
10957;SDS011;5531;42.570;23.676;2022-09-01T02:04:13;32.35;;;25.08;;
10957;SDS011;5531;42.570;23.676;2022-09-01T02:06:44;31.08;;;23.20;;
10957;SDS011;5531;42.570;23.676;2022-09-01T02:09:17;28.90;;;23.02;;
10957;SDS011;5531;42.570;23.676;2022-09-01T02:11:50;30.77;;;23.63;;
10957;SDS011;5531;42.570;23.676;2022-09-01T02:14:21;24.95;;;18.70;;
10957;SDS011;5531;42.570;23.676;2022-09-01T02:16:50;26.42;;;19.73;;
10957;SDS011;5531;42.570;23.676;2022-09-01T02:19:20;18.83;;;15.23;;
10957;SDS011;5531;42.570;23.676;2022-09-01T02:21:49;14.65;;;12.43;;
10957;SDS011;5531;42.570;23.676;2022-09-01T02:24:21;11.82;;;10.35;;
10957;SDS011;5531;42.570;23.676;2022-09-01T02:26:56;12.35;;;9.82;;
10957;SDS011;5531;42.570;23.676;2022-09-01T02:29:25;8.23;;;7.43;;
10957;SDS011;5531;42.570;23.676;2022-09-01T02:31:55;8.25;;;7.07;;
10957;SDS011;5531;42.570;23.676;2022-09-01T02:34:24;8.02;;;6.25;;
10957;SDS011;5531;42.570;23.676;2022-09-01T02:36:56;6.50;;;5.43;;
10957;SDS011;5531;42.570;23.676;2022-09-01T02:39:26;6.45;;;4.90;;
10957;SDS011;5531;42.570;23.676;2022-09-01T02:42:00;7.72;;;5.30;;
10957;SDS011;5531;42.570;23.676;2022-09-01T02:44:29;7.63;;;4.82;;
10957;SDS011;5531;42.570;23.676;2022-09-01T02:46:58;5.07;;;4.20;;
10957;SDS011;5531;42.570;23.676;2022-09-01T02:49:29;6.00;;;4.63;;
10957;SDS011;5531;42.570;23.676;2022-09-01T02:52:00;6.10;;;4.95;;
10957;SDS011;5531;42.570;23.676;2022-09-01T02:54:30;4.60;;;4.10;;
10957;SDS011;5531;42.570;23.676;2022-09-01T02:57:03;6.97;;;5.18;;
10957;SDS011;5531;42.570;23.676;2022-09-01T02:59:33;6.32;;;5.10;;
10957;SDS011;5531;42.570;23.676;2022-09-01T03:02:02;5.70;;;4.70;;
10957;SDS011;5531;42.570;23.676;2022-09-01T03:04:32;5.10;;;4.60;;
10957;SDS011;5531;42.570;23.676;2022-09-01T03:07:03;6.88;;;5.40;;
10957;SDS011;5531;42.570;23.676;2022-09-01T03:09:33;6.38;;;5.03;;
10957;SDS011;5531;42.570;23.676;2022-09-01T03:12:08;5.90;;;4.78;;
10957;SDS011;5531;42.570;23.676;2022-09-01T03:14:37;6.88;;;5.35;;
10957;SDS011;5531;42.570;23.676;2022-09-01T03:17:06;5.72;;;4.90;;
10957;SDS011;5531;42.570;23.676;2022-09-01T03:19:36;5.85;;;4.82;;
10957;SDS011;5531;42.570;23.676;2022-09-01T03:22:09;7.90;;;5.80;;
10957;SDS011;5531;42.570;23.676;2022-09-01T03:24:38;7.78;;;5.28;;
10957;SDS011;5531;42.570;23.676;2022-09-01T03:27:10;6.10;;;5.10;;
10957;SDS011;5531;42.570;23.676;2022-09-01T03:29:39;7.78;;;5.68;;
10957;SDS011;5531;42.570;23.676;2022-09-01T03:32:08;8.15;;;6.05;;
10957;SDS011;5531;42.570;23.676;2022-09-01T03:34:37;7.03;;;5.65;;
10957;SDS011;5531;42.570;23.676;2022-09-01T03:37:06;6.18;;;5.28;;
10957;SDS011;5531;42.570;23.676;2022-09-01T03:39:36;6.95;;;5.40;;
10957;SDS011;5531;42.570;23.676;2022-09-01T03:42:05;6.43;;;5.10;;
10957;SDS011;5531;42.570;23.676;2022-09-01T03:44:46;7.60;;;5.53;;
10957;SDS011;5531;42.570;23.676;2022-09-01T03:47:16;7.03;;;6.32;;
10957;SDS011;5531;42.570;23.676;2022-09-01T03:49:45;5.68;;;5.03;;
10957;SDS011;5531;42.570;23.676;2022-09-01T03:52:15;6.57;;;5.53;;
10957;SDS011;5531;42.570;23.676;2022-09-01T03:54:44;6.85;;;4.90;;
10957;SDS011;5531;42.570;23.676;2022-09-01T03:57:18;6.30;;;5.15;;
10957;SDS011;5531;42.570;23.676;2022-09-01T03:59:50;6.97;;;5.70;;
10957;SDS011;5531;42.570;23.676;2022-09-01T04:02:19;7.63;;;5.80;;
10957;SDS011;5531;42.570;23.676;2022-09-01T04:04:50;6.35;;;5.38;;
10957;SDS011;5531;42.570;23.676;2022-09-01T04:07:19;6.60;;;5.63;;
10957;SDS011;5531;42.570;23.676;2022-09-01T04:09:48;7.13;;;5.57;;
10957;SDS011;5531;42.570;23.676;2022-09-01T04:12:17;6.60;;;5.43;;
10957;SDS011;5531;42.570;23.676;2022-09-01T04:14:47;7.70;;;5.75;;
10957;SDS011;5531;42.570;23.676;2022-09-01T04:17:18;7.32;;;5.55;;
10957;SDS011;5531;42.570;23.676;2022-09-01T04:20:00;8.52;;;5.90;;
10957;SDS011;5531;42.570;23.676;2022-09-01T04:22:33;8.55;;;6.32;;
10957;SDS011;5531;42.570;23.676;2022-09-01T04:25:03;6.88;;;5.50;;
10957;SDS011;5531;42.570;23.676;2022-09-01T04:27:33;7.10;;;5.70;;
10957;SDS011;5531;42.570;23.676;2022-09-01T04:30:08;8.27;;;5.28;;
10957;SDS011;5531;42.570;23.676;2022-09-01T04:32:38;8.82;;;5.53;;
10957;SDS011;5531;42.570;23.676;2022-09-01T04:35:08;6.63;;;5.15;;
10957;SDS011;5531;42.570;23.676;2022-09-01T04:37:41;8.82;;;6.25;;
10957;SDS011;5531;42.570;23.676;2022-09-01T04:40:12;8.32;;;6.32;;
10957;SDS011;5531;42.570;23.676;2022-09-01T04:42:42;6.63;;;5.43;;
10957;SDS011;5531;42.570;23.676;2022-09-01T04:45:14;9.63;;;6.53;;
10957;SDS011;5531;42.570;23.676;2022-09-01T04:47:46;8.52;;;6.30;;
10957;SDS011;5531;42.570;23.676;2022-09-01T04:50:16;8.00;;;6.28;;
10957;SDS011;5531;42.570;23.676;2022-09-01T04:52:46;7.88;;;5.97;;
10957;SDS011;5531;42.570;23.676;2022-09-01T04:55:15;6.93;;;5.80;;
10957;SDS011;5531;42.570;23.676;2022-09-01T04:57:45;7.65;;;6.55;;
10957;SDS011;5531;42.570;23.676;2022-09-01T05:00:19;7.60;;;6.10;;
10957;SDS011;5531;42.570;23.676;2022-09-01T05:02:52;7.97;;;6.43;;
10957;SDS011;5531;42.570;23.676;2022-09-01T05:05:34;7.50;;;5.97;;
10957;SDS011;5531;42.570;23.676;2022-09-01T05:08:07;6.20;;;5.47;;
10957;SDS011;5531;42.570;23.676;2022-09-01T05:10:39;6.78;;;5.18;;
10957;SDS011;5531;42.570;23.676;2022-09-01T05:13:11;7.35;;;5.55;;
10957;SDS011;5531;42.570;23.676;2022-09-01T05:15:45;7.35;;;5.72;;
10957;SDS011;5531;42.570;23.676;2022-09-01T05:18:15;6.18;;;5.43;;
10957;SDS011;5531;42.570;23.676;2022-09-01T05:20:48;6.95;;;5.40;;
10957;SDS011;5531;42.570;23.676;2022-09-01T05:23:18;7.05;;;6.00;;
10957;SDS011;5531;42.570;23.676;2022-09-01T05:25:49;6.10;;;5.15;;
10957;SDS011;5531;42.570;23.676;2022-09-01T05:28:19;6.38;;;5.45;;
10957;SDS011;5531;42.570;23.676;2022-09-01T05:30:54;6.15;;;5.45;;
10957;SDS011;5531;42.570;23.676;2022-09-01T05:33:23;6.20;;;4.90;;
10957;SDS011;5531;42.570;23.676;2022-09-01T05:35:52;7.35;;;5.70;;
10957;SDS011;5531;42.570;23.676;2022-09-01T05:38:24;8.90;;;6.53;;
10957;SDS011;5531;42.570;23.676;2022-09-01T05:40:56;9.00;;;7.15;;
10957;SDS011;5531;42.570;23.676;2022-09-01T05:43:27;9.63;;;7.35;;
10957;SDS011;5531;42.570;23.676;2022-09-01T05:45:59;9.15;;;7.35;;
10957;SDS011;5531;42.570;23.676;2022-09-01T05:48:29;10.68;;;7.82;;
10957;SDS011;5531;42.570;23.676;2022-09-01T05:50:59;11.20;;;7.75;;
10957;SDS011;5531;42.570;23.676;2022-09-01T05:53:29;11.32;;;8.25;;
10957;SDS011;5531;42.570;23.676;2022-09-01T05:55:58;12.00;;;8.52;;
10957;SDS011;5531;42.570;23.676;2022-09-01T05:58:31;11.32;;;8.13;;
10957;SDS011;5531;42.570;23.676;2022-09-01T06:01:06;9.65;;;7.53;;
10957;SDS011;5531;42.570;23.676;2022-09-01T06:03:37;10.77;;;8.10;;
10957;SDS011;5531;42.570;23.676;2022-09-01T06:06:09;9.70;;;7.25;;
10957;SDS011;5531;42.570;23.676;2022-09-01T06:08:38;7.50;;;6.32;;
10957;SDS011;5531;42.570;23.676;2022-09-01T06:11:07;8.20;;;6.55;;
10957;SDS011;5531;42.570;23.676;2022-09-01T06:13:41;8.60;;;7.15;;
10957;SDS011;5531;42.570;23.676;2022-09-01T06:16:16;8.05;;;6.47;;
10957;SDS011;5531;42.570;23.676;2022-09-01T06:18:54;9.10;;;7.70;;
10957;SDS011;5531;42.570;23.676;2022-09-01T06:21:24;7.97;;;6.78;;
10957;SDS011;5531;42.570;23.676;2022-09-01T06:23:56;7.55;;;6.25;;
10957;SDS011;5531;42.570;23.676;2022-09-01T06:26:26;7.10;;;5.50;;
10957;SDS011;5531;42.570;23.676;2022-09-01T06:28:58;6.07;;;5.35;;
10957;SDS011;5531;42.570;23.676;2022-09-01T06:31:32;6.80;;;5.72;;
10957;SDS011;5531;42.570;23.676;2022-09-01T06:34:04;6.18;;;5.43;;
10957;SDS011;5531;42.570;23.676;2022-09-01T06:36:34;6.35;;;5.47;;
10957;SDS011;5531;42.570;23.676;2022-09-01T06:39:05;5.32;;;4.75;;
10957;SDS011;5531;42.570;23.676;2022-09-01T06:41:44;5.18;;;4.68;;
10957;SDS011;5531;42.570;23.676;2022-09-01T06:44:17;5.88;;;5.15;;
10957;SDS011;5531;42.570;23.676;2022-09-01T06:46:50;5.70;;;4.63;;
10957;SDS011;5531;42.570;23.676;2022-09-01T06:49:20;5.72;;;4.93;;
10957;SDS011;5531;42.570;23.676;2022-09-01T06:51:57;5.65;;;4.65;;
10957;SDS011;5531;42.570;23.676;2022-09-01T06:54:27;5.38;;;4.82;;
10957;SDS011;5531;42.570;23.676;2022-09-01T06:56:59;7.22;;;5.03;;
10957;SDS011;5531;42.570;23.676;2022-09-01T06:59:30;4.88;;;4.38;;
10957;SDS011;5531;42.570;23.676;2022-09-01T07:02:02;5.28;;;4.00;;
10957;SDS011;5531;42.570;23.676;2022-09-01T07:04:33;4.35;;;3.95;;
10957;SDS011;5531;42.570;23.676;2022-09-01T07:07:08;4.55;;;4.13;;
10957;SDS011;5531;42.570;23.676;2022-09-01T07:09:37;5.32;;;4.22;;
10957;SDS011;5531;42.570;23.676;2022-09-01T07:12:07;4.90;;;4.22;;
10957;SDS011;5531;42.570;23.676;2022-09-01T07:14:37;4.43;;;4.03;;
10957;SDS011;5531;42.570;23.676;2022-09-01T07:17:09;4.70;;;4.30;;
10957;SDS011;5531;42.570;23.676;2022-09-01T07:19:40;4.57;;;4.10;;
10957;SDS011;5531;42.570;23.676;2022-09-01T07:22:09;4.82;;;4.32;;
10957;SDS011;5531;42.570;23.676;2022-09-01T07:24:38;3.72;;;3.42;;
10957;SDS011;5531;42.570;23.676;2022-09-01T07:27:07;4.68;;;4.07;;
10957;SDS011;5531;42.570;23.676;2022-09-01T07:29:36;4.85;;;4.35;;
10957;SDS011;5531;42.570;23.676;2022-09-01T07:32:09;5.00;;;4.50;;
10957;SDS011;5531;42.570;23.676;2022-09-01T07:34:42;5.28;;;3.53;;
10957;SDS011;5531;42.570;23.676;2022-09-01T07:37:12;4.30;;;3.60;;
10957;SDS011;5531;42.570;23.676;2022-09-01T07:39:42;3.50;;;3.20;;
10957;SDS011;5531;42.570;23.676;2022-09-01T07:42:12;3.45;;;3.10;;
10957;SDS011;5531;42.570;23.676;2022-09-01T07:44:43;3.60;;;3.30;;
10957;SDS011;5531;42.570;23.676;2022-09-01T07:47:15;3.38;;;3.08;;
10957;SDS011;5531;42.570;23.676;2022-09-01T07:49:45;3.78;;;3.00;;
10957;SDS011;5531;42.570;23.676;2022-09-01T07:52:14;4.93;;;3.47;;
10957;SDS011;5531;42.570;23.676;2022-09-01T07:54:44;3.30;;;3.00;;
10957;SDS011;5531;42.570;23.676;2022-09-01T07:57:13;3.65;;;3.35;;
10957;SDS011;5531;42.570;23.676;2022-09-01T07:59:42;3.83;;;3.40;;
10957;SDS011;5531;42.570;23.676;2022-09-01T08:02:11;3.35;;;3.05;;
10957;SDS011;5531;42.570;23.676;2022-09-01T08:04:43;3.90;;;3.60;;
10957;SDS011;5531;42.570;23.676;2022-09-01T08:07:13;3.67;;;3.33;;
10957;SDS011;5531;42.570;23.676;2022-09-01T08:09:42;3.95;;;3.53;;
10957;SDS011;5531;42.570;23.676;2022-09-01T08:12:11;3.90;;;3.47;;
10957;SDS011;5531;42.570;23.676;2022-09-01T08:14:41;3.25;;;2.95;;
10957;SDS011;5531;42.570;23.676;2022-09-01T08:17:11;3.13;;;2.78;;
10957;SDS011;5531;42.570;23.676;2022-09-01T08:19:42;3.28;;;2.97;;
10957;SDS011;5531;42.570;23.676;2022-09-01T08:22:11;3.90;;;3.20;;
10957;SDS011;5531;42.570;23.676;2022-09-01T08:24:41;3.42;;;3.13;;
10957;SDS011;5531;42.570;23.676;2022-09-01T08:27:10;4.10;;;3.28;;
10957;SDS011;5531;42.570;23.676;2022-09-01T08:29:39;6.25;;;4.97;;
10957;SDS011;5531;42.570;23.676;2022-09-01T08:32:09;4.93;;;4.43;;
10957;SDS011;5531;42.570;23.676;2022-09-01T08:34:38;5.55;;;4.97;;
10957;SDS011;5531;42.570;23.676;2022-09-01T08:37:10;5.90;;;5.30;;
10957;SDS011;5531;42.570;23.676;2022-09-01T08:39:39;5.25;;;4.75;;
10957;SDS011;5531;42.570;23.676;2022-09-01T08:42:11;5.38;;;4.85;;
10957;SDS011;5531;42.570;23.676;2022-09-01T08:44:47;5.20;;;4.70;;
10957;SDS011;5531;42.570;23.676;2022-09-01T08:47:21;7.10;;;5.00;;
10957;SDS011;5531;42.570;23.676;2022-09-01T08:49:51;5.70;;;5.10;;
10957;SDS011;5531;42.570;23.676;2022-09-01T08:52:25;5.35;;;4.85;;
10957;SDS011;5531;42.570;23.676;2022-09-01T08:54:59;5.53;;;5.03;;
10957;SDS011;5531;42.570;23.676;2022-09-01T08:57:34;6.88;;;6.18;;
10957;SDS011;5531;42.570;23.676;2022-09-01T09:00:09;5.15;;;4.65;;
10957;SDS011;5531;42.570;23.676;2022-09-01T09:02:42;5.82;;;4.72;;
10957;SDS011;5531;42.570;23.676;2022-09-01T09:05:22;5.95;;;5.45;;
10957;SDS011;5531;42.570;23.676;2022-09-01T09:08:09;5.03;;;4.53;;
10957;SDS011;5531;42.570;23.676;2022-09-01T09:10:57;5.05;;;4.38;;
10957;SDS011;5531;42.570;23.676;2022-09-01T09:13:31;4.85;;;4.38;;
10957;SDS011;5531;42.570;23.676;2022-09-01T09:16:11;4.97;;;4.47;;
10957;SDS011;5531;42.570;23.676;2022-09-01T09:18:47;4.85;;;4.40;;
10957;SDS011;5531;42.570;23.676;2022-09-01T09:21:20;6.00;;;5.40;;
10957;SDS011;5531;42.570;23.676;2022-09-01T09:23:56;6.20;;;4.72;;
10957;SDS011;5531;42.570;23.676;2022-09-01T09:26:31;5.57;;;4.90;;
10957;SDS011;5531;42.570;23.676;2022-09-01T09:29:00;5.00;;;4.50;;
10957;SDS011;5531;42.570;23.676;2022-09-01T09:31:31;5.03;;;4.53;;
10957;SDS011;5531;42.570;23.676;2022-09-01T09:34:02;4.90;;;4.38;;
10957;SDS011;5531;42.570;23.676;2022-09-01T09:36:44;4.95;;;4.38;;
10957;SDS011;5531;42.570;23.676;2022-09-01T09:39:16;4.40;;;4.00;;
10957;SDS011;5531;42.570;23.676;2022-09-01T09:42:01;3.47;;;3.17;;
10957;SDS011;5531;42.570;23.676;2022-09-01T09:44:39;3.97;;;3.58;;
10957;SDS011;5531;42.570;23.676;2022-09-01T09:47:17;4.75;;;4.25;;
10957;SDS011;5531;42.570;23.676;2022-09-01T09:50:09;4.47;;;4.07;;
10957;SDS011;5531;42.570;23.676;2022-09-01T09:52:42;5.30;;;4.00;;
10957;SDS011;5531;42.570;23.676;2022-09-01T09:55:22;4.47;;;3.83;;
10957;SDS011;5531;42.570;23.676;2022-09-01T09:57:54;4.43;;;3.88;;
10957;SDS011;5531;42.570;23.676;2022-09-01T10:00:27;5.57;;;4.30;;
10957;SDS011;5531;42.570;23.676;2022-09-01T10:02:59;4.47;;;4.07;;
10957;SDS011;5531;42.570;23.676;2022-09-01T10:05:36;4.40;;;4.00;;
10957;SDS011;5531;42.570;23.676;2022-09-01T10:08:08;6.05;;;5.05;;
10957;SDS011;5531;42.570;23.676;2022-09-01T10:10:43;5.00;;;4.50;;
10957;SDS011;5531;42.570;23.676;2022-09-01T10:13:15;6.85;;;4.60;;
10957;SDS011;5531;42.570;23.676;2022-09-01T10:15:48;4.90;;;4.40;;
10957;SDS011;5531;42.570;23.676;2022-09-01T10:18:21;4.47;;;4.00;;
10957;SDS011;5531;42.570;23.676;2022-09-01T10:20:52;5.03;;;4.53;;
10957;SDS011;5531;42.570;23.676;2022-09-01T10:23:26;4.85;;;4.35;;
10957;SDS011;5531;42.570;23.676;2022-09-01T10:26:00;4.95;;;4.45;;
10957;SDS011;5531;42.570;23.676;2022-09-01T10:28:43;4.80;;;4.30;;
10957;SDS011;5531;42.570;23.676;2022-09-01T10:31:20;4.78;;;4.30;;
10957;SDS011;5531;42.570;23.676;2022-09-01T10:33:50;4.90;;;4.50;;
10957;SDS011;5531;42.570;23.676;2022-09-01T10:36:19;5.15;;;4.65;;
10957;SDS011;5531;42.570;23.676;2022-09-01T10:38:49;4.75;;;4.25;;
10957;SDS011;5531;42.570;23.676;2022-09-01T10:44:19;5.13;;;4.63;;
10957;SDS011;5531;42.570;23.676;2022-09-01T10:46:50;6.00;;;5.40;;
10957;SDS011;5531;42.570;23.676;2022-09-01T10:55:38;5.18;;;4.68;;
10957;SDS011;5531;42.570;23.676;2022-09-01T10:58:20;5.38;;;4.88;;
10957;SDS011;5531;42.570;23.676;2022-09-01T11:00:56;5.50;;;4.93;;
10957;SDS011;5531;42.570;23.676;2022-09-01T11:03:47;5.70;;;5.10;;
10957;SDS011;5531;42.570;23.676;2022-09-01T11:06:33;6.57;;;5.25;;
10957;SDS011;5531;42.570;23.676;2022-09-01T11:09:18;5.50;;;4.75;;
10957;SDS011;5531;42.570;23.676;2022-09-01T11:11:56;5.30;;;4.80;;
10957;SDS011;5531;42.570;23.676;2022-09-01T11:14:51;5.32;;;4.68;;
10957;SDS011;5531;42.570;23.676;2022-09-01T11:17:22;4.72;;;4.32;;
10957;SDS011;5531;42.570;23.676;2022-09-01T11:19:54;4.93;;;4.50;;
10957;SDS011;5531;42.570;23.676;2022-09-01T11:22:30;5.03;;;4.53;;
10957;SDS011;5531;42.570;23.676;2022-09-01T11:28:09;5.47;;;4.30;;
10957;SDS011;5531;42.570;23.676;2022-09-01T11:30:58;4.43;;;4.10;;
10957;SDS011;5531;42.570;23.676;2022-09-01T11:33:46;5.13;;;4.57;;
10957;SDS011;5531;42.570;23.676;2022-09-01T11:36:23;5.15;;;3.95;;
10957;SDS011;5531;42.570;23.676;2022-09-01T11:39:03;4.82;;;4.32;;
10957;SDS011;5531;42.570;23.676;2022-09-01T11:41:41;4.47;;;4.07;;
10957;SDS011;5531;42.570;23.676;2022-09-01T11:44:21;4.32;;;3.92;;
10957;SDS011;5531;42.570;23.676;2022-09-01T11:46:57;4.30;;;3.90;;
10957;SDS011;5531;42.570;23.676;2022-09-01T11:49:31;4.95;;;4.45;;
10957;SDS011;5531;42.570;23.676;2022-09-01T11:52:03;4.03;;;3.72;;
10957;SDS011;5531;42.570;23.676;2022-09-01T11:54:37;4.13;;;3.80;;
10957;SDS011;5531;42.570;23.676;2022-09-01T12:00:04;4.32;;;3.92;;
10957;SDS011;5531;42.570;23.676;2022-09-01T12:02:44;4.10;;;3.78;;
10957;SDS011;5531;42.570;23.676;2022-09-01T12:05:28;3.78;;;3.40;;
10957;SDS011;5531;42.570;23.676;2022-09-01T12:07:59;4.07;;;3.67;;
10957;SDS011;5531;42.570;23.676;2022-09-01T12:10:32;3.58;;;3.28;;
10957;SDS011;5531;42.570;23.676;2022-09-01T12:13:05;4.40;;;4.00;;
10957;SDS011;5531;42.570;23.676;2022-09-01T12:15:36;3.78;;;3.38;;
10957;SDS011;5531;42.570;23.676;2022-09-01T12:18:14;3.85;;;3.33;;
10957;SDS011;5531;42.570;23.676;2022-09-01T12:20:47;3.65;;;3.10;;
10957;SDS011;5531;42.570;23.676;2022-09-01T12:23:21;3.70;;;3.40;;
10957;SDS011;5531;42.570;23.676;2022-09-01T12:25:53;3.75;;;3.45;;
10957;SDS011;5531;42.570;23.676;2022-09-01T12:28:24;3.55;;;3.25;;
10957;SDS011;5531;42.570;23.676;2022-09-01T12:30:56;3.70;;;3.40;;
10957;SDS011;5531;42.570;23.676;2022-09-01T12:33:31;3.58;;;3.28;;
10957;SDS011;5531;42.570;23.676;2022-09-01T12:36:13;3.55;;;3.25;;
10957;SDS011;5531;42.570;23.676;2022-09-01T12:38:43;3.25;;;2.95;;
10957;SDS011;5531;42.570;23.676;2022-09-01T12:41:22;3.28;;;2.97;;
10957;SDS011;5531;42.570;23.676;2022-09-01T12:43:53;3.72;;;3.42;;
10957;SDS011;5531;42.570;23.676;2022-09-01T12:49:21;3.47;;;3.17;;
10957;SDS011;5531;42.570;23.676;2022-09-01T12:52:05;4.45;;;3.15;;
10957;SDS011;5531;42.570;23.676;2022-09-01T12:54:38;3.35;;;3.05;;
10957;SDS011;5531;42.570;23.676;2022-09-01T12:57:07;3.33;;;3.03;;
10957;SDS011;5531;42.570;23.676;2022-09-01T12:59:37;3.38;;;3.08;;
10957;SDS011;5531;42.570;23.676;2022-09-01T13:04:56;3.20;;;2.90;;
10957;SDS011;5531;42.570;23.676;2022-09-01T13:07:46;3.30;;;3.00;;
10957;SDS011;5531;42.570;23.676;2022-09-01T13:10:15;3.40;;;3.10;;
10957;SDS011;5531;42.570;23.676;2022-09-01T13:12:44;3.55;;;3.25;;
10957;SDS011;5531;42.570;23.676;2022-09-01T13:15:13;3.58;;;3.28;;
10957;SDS011;5531;42.570;23.676;2022-09-01T13:17:43;3.67;;;3.38;;
10957;SDS011;5531;42.570;23.676;2022-09-01T13:20:14;3.22;;;2.92;;
10957;SDS011;5531;42.570;23.676;2022-09-01T13:22:43;3.10;;;2.80;;
10957;SDS011;5531;42.570;23.676;2022-09-01T13:25:14;3.40;;;3.10;;
10957;SDS011;5531;42.570;23.676;2022-09-01T13:27:44;3.35;;;3.05;;
10957;SDS011;5531;42.570;23.676;2022-09-01T13:30:15;3.85;;;3.38;;
10957;SDS011;5531;42.570;23.676;2022-09-01T13:32:46;3.70;;;3.40;;
10957;SDS011;5531;42.570;23.676;2022-09-01T13:35:20;3.45;;;3.15;;
10957;SDS011;5531;42.570;23.676;2022-09-01T13:37:50;3.50;;;3.17;;
10957;SDS011;5531;42.570;23.676;2022-09-01T13:40:19;3.67;;;2.75;;
10957;SDS011;5531;42.570;23.676;2022-09-01T13:42:50;3.45;;;3.15;;
10957;SDS011;5531;42.570;23.676;2022-09-01T13:45:21;3.25;;;2.95;;
10957;SDS011;5531;42.570;23.676;2022-09-01T13:47:52;3.22;;;2.92;;
10957;SDS011;5531;42.570;23.676;2022-09-01T13:50:24;4.40;;;3.08;;
10957;SDS011;5531;42.570;23.676;2022-09-01T13:52:53;3.78;;;3.40;;
10957;SDS011;5531;42.570;23.676;2022-09-01T13:55:25;3.30;;;3.00;;
10957;SDS011;5531;42.570;23.676;2022-09-01T13:57:55;3.90;;;3.28;;
10957;SDS011;5531;42.570;23.676;2022-09-01T14:00:25;3.25;;;2.95;;
10957;SDS011;5531;42.570;23.676;2022-09-01T14:02:57;4.15;;;3.47;;
10957;SDS011;5531;42.570;23.676;2022-09-01T14:05:32;3.63;;;3.33;;
10957;SDS011;5531;42.570;23.676;2022-09-01T14:08:02;3.25;;;2.95;;
10957;SDS011;5531;42.570;23.676;2022-09-01T14:10:36;3.60;;;3.30;;
10957;SDS011;5531;42.570;23.676;2022-09-01T14:13:06;4.50;;;3.20;;
10957;SDS011;5531;42.570;23.676;2022-09-01T14:15:36;3.28;;;2.95;;
10957;SDS011;5531;42.570;23.676;2022-09-01T14:18:06;3.40;;;3.10;;
10957;SDS011;5531;42.570;23.676;2022-09-01T14:20:38;3.85;;;3.17;;
10957;SDS011;5531;42.570;23.676;2022-09-01T14:23:11;3.10;;;2.85;;
10957;SDS011;5531;42.570;23.676;2022-09-01T14:25:43;3.55;;;3.25;;
10957;SDS011;5531;42.570;23.676;2022-09-01T14:28:13;3.28;;;2.97;;
10957;SDS011;5531;42.570;23.676;2022-09-01T14:30:43;3.58;;;3.28;;
10957;SDS011;5531;42.570;23.676;2022-09-01T14:33:12;3.80;;;3.47;;
10957;SDS011;5531;42.570;23.676;2022-09-01T14:35:45;4.32;;;3.60;;
10957;SDS011;5531;42.570;23.676;2022-09-01T14:38:15;3.90;;;3.50;;
10957;SDS011;5531;42.570;23.676;2022-09-01T14:40:45;4.20;;;3.72;;
10957;SDS011;5531;42.570;23.676;2022-09-01T14:43:16;3.65;;;3.33;;
10957;SDS011;5531;42.570;23.676;2022-09-01T14:45:46;3.50;;;3.20;;
10957;SDS011;5531;42.570;23.676;2022-09-01T14:48:16;3.38;;;3.08;;
10957;SDS011;5531;42.570;23.676;2022-09-01T14:50:50;3.67;;;3.38;;
10957;SDS011;5531;42.570;23.676;2022-09-01T14:53:19;4.15;;;3.75;;
10957;SDS011;5531;42.570;23.676;2022-09-01T14:55:49;3.20;;;2.90;;
10957;SDS011;5531;42.570;23.676;2022-09-01T14:58:18;3.17;;;2.80;;
10957;SDS011;5531;42.570;23.676;2022-09-01T15:00:47;3.53;;;3.20;;
10957;SDS011;5531;42.570;23.676;2022-09-01T15:03:16;3.42;;;3.13;;
10957;SDS011;5531;42.570;23.676;2022-09-01T15:05:45;3.55;;;3.15;;
10957;SDS011;5531;42.570;23.676;2022-09-01T15:08:17;3.30;;;3.00;;
10957;SDS011;5531;42.570;23.676;2022-09-01T15:10:47;4.20;;;3.30;;
10957;SDS011;5531;42.570;23.676;2022-09-01T15:13:16;3.50;;;3.20;;
10957;SDS011;5531;42.570;23.676;2022-09-01T15:15:45;3.20;;;2.90;;
10957;SDS011;5531;42.570;23.676;2022-09-01T15:18:15;3.60;;;2.80;;
10957;SDS011;5531;42.570;23.676;2022-09-01T15:20:44;3.30;;;3.00;;
10957;SDS011;5531;42.570;23.676;2022-09-01T15:23:16;3.47;;;3.13;;
10957;SDS011;5531;42.570;23.676;2022-09-01T15:25:49;3.50;;;2.97;;
10957;SDS011;5531;42.570;23.676;2022-09-01T15:28:20;3.63;;;3.05;;
10957;SDS011;5531;42.570;23.676;2022-09-01T15:30:50;3.55;;;3.25;;
10957;SDS011;5531;42.570;23.676;2022-09-01T15:33:21;3.35;;;3.05;;